Time;durP1;ratioP1;P1;durP2;ratioP2;P2;SDS_P1;SDS_P2;PMS_P1;PMS_P2;Temp;Humidity;BMP_temperature;BMP_pressure;BME280_temperature;BME280_humidity;BME280_pressure;Samples;Min_cycle;Max_cycle;Signal;HPM_P1;HPM_P2
2023/07/31 00:00:38;;;;;;;6.90;3.50;;;17.00;99.90;;;;;;5051014;28;20202;-51
2023/07/31 00:03:04;;;;;;;6.60;3.47;;;17.00;99.90;;;;;;5050639;28;20171;-52
2023/07/31 00:05:29;;;;;;;10.48;3.42;;;17.10;99.90;;;;;;5051433;28;20549;-52
2023/07/31 00:07:55;;;;;;;7.10;3.53;;;17.20;99.90;;;;;;5051034;28;20631;-49
2023/07/31 00:10:20;;;;;;;10.13;3.60;;;17.00;99.90;;;;;;5050869;28;20170;-51
2023/07/31 00:12:46;;;;;;;7.72;3.53;;;17.00;99.90;;;;;;5050937;28;20217;-51
2023/07/31 00:15:14;;;;;;;8.25;3.47;;;17.00;99.90;;;;;;5050655;28;20174;-50
2023/07/31 00:17:39;;;;;;;11.18;3.88;;;17.00;99.90;;;;;;5051090;28;20290;-52
2023/07/31 00:20:06;;;;;;;10.32;4.15;;;16.90;99.90;;;;;;5050837;28;20217;-51
2023/07/31 00:22:31;;;;;;;5.22;3.38;;;17.00;99.90;;;;;;5051390;28;20179;-50
2023/07/31 00:24:57;;;;;;;8.43;3.58;;;17.10;99.90;;;;;;5051275;28;20224;-48
2023/07/31 00:27:23;;;;;;;9.18;3.80;;;17.10;99.90;;;;;;5050815;28;20185;-50
2023/07/31 00:29:48;;;;;;;8.15;3.17;;;17.00;99.90;;;;;;5050672;28;20216;-51
2023/07/31 00:32:14;;;;;;;7.43;3.42;;;17.10;99.90;;;;;;5050838;28;20555;-48
2023/07/31 00:34:39;;;;;;;6.63;3.35;;;17.10;99.90;;;;;;5050904;28;20208;-52
2023/07/31 00:37:06;;;;;;;10.23;3.33;;;17.10;99.90;;;;;;5050605;28;20170;-52
2023/07/31 00:39:31;;;;;;;12.60;3.67;;;17.00;99.90;;;;;;5051309;28;20186;-52
2023/07/31 00:41:57;;;;;;;8.60;3.70;;;17.10;99.90;;;;;;5050798;28;20626;-52
2023/07/31 00:44:22;;;;;;;7.45;3.35;;;17.00;99.90;;;;;;5050815;28;20181;-51
2023/07/31 00:46:48;;;;;;;8.38;4.07;;;17.10;99.90;;;;;;5050784;28;20163;-51
2023/07/31 00:49:15;;;;;;;6.68;3.00;;;17.00;99.90;;;;;;5050632;28;20171;-51
2023/07/31 00:51:40;;;;;;;9.95;3.22;;;17.00;99.90;;;;;;5050642;28;20185;-48
2023/07/31 00:54:06;;;;;;;4.75;3.25;;;17.10;99.90;;;;;;5050621;28;20159;-53
2023/07/31 00:56:32;;;;;;;10.70;3.22;;;17.00;99.90;;;;;;5050169;28;20185;-51
2023/07/31 00:58:58;;;;;;;6.47;3.58;;;17.10;99.90;;;;;;5050830;28;20732;-50
2023/07/31 01:01:23;;;;;;;6.25;2.92;;;17.20;99.90;;;;;;5050536;28;20174;-49
2023/07/31 01:03:53;;;;;;;11.90;3.60;;;17.10;99.90;;;;;;5050357;28;20198;-49
2023/07/31 01:06:48;;;;;;;11.18;3.60;;;17.10;99.90;;;;;;5050483;28;20250;-49
2023/07/31 01:09:23;;;;;;;6.75;3.83;;;17.10;99.90;;;;;;5050480;28;20167;-50
2023/07/31 01:12:02;;;;;;;5.93;2.88;;;17.00;99.90;;;;;;5050302;28;20221;-47
2023/07/31 01:14:28;;;;;;;9.32;3.10;;;17.00;99.90;;;;;;5051000;28;20178;-48
2023/07/31 01:16:54;;;;;;;10.48;3.72;;;17.10;99.90;;;;;;5050343;28;20175;-49
2023/07/31 01:19:23;;;;;;;5.60;3.42;;;17.00;99.90;;;;;;5050245;28;20206;-49
2023/07/31 01:22:17;;;;;;;8.35;3.42;;;17.10;99.90;;;;;;5050270;28;20642;-49
2023/07/31 01:25:31;;;;;;;8.32;3.42;;;17.10;99.90;;;;;;5050303;28;20171;-51
2023/07/31 01:28:04;;;;;;;9.13;3.08;;;17.10;99.90;;;;;;5020255;28;20199;-51
2023/07/31 01:30:35;;;;;;;10.90;3.53;;;17.00;99.90;;;;;;5034361;28;20159;-52
2023/07/31 01:33:06;;;;;;;10.77;3.60;;;17.10;99.90;;;;;;5049742;28;20179;-52
2023/07/31 01:35:33;;;;;;;10.13;3.50;;;17.10;99.90;;;;;;5053857;28;20171;-47
2023/07/31 01:37:59;;;;;;;8.77;4.32;;;17.00;99.90;;;;;;5054103;28;20203;-52
2023/07/31 01:40:24;;;;;;;10.10;3.90;;;17.00;99.90;;;;;;5053690;28;20159;-48
2023/07/31 01:42:50;;;;;;;9.73;4.10;;;17.10;99.90;;;;;;5053534;28;20246;-51
2023/07/31 01:45:15;;;;;;;9.85;3.95;;;17.00;99.90;;;;;;5053657;28;20676;-51
2023/07/31 01:47:41;;;;;;;9.07;3.40;;;17.00;99.90;;;;;;5053512;28;20188;-50
2023/07/31 01:50:07;;;;;;;6.80;3.33;;;17.00;99.90;;;;;;5053889;28;20171;-49
2023/07/31 01:52:32;;;;;;;5.10;3.65;;;17.10;99.90;;;;;;5053361;28;20167;-47
2023/07/31 01:54:58;;;;;;;12.05;3.20;;;17.00;99.90;;;;;;5053814;28;20227;-50
2023/07/31 01:57:23;;;;;;;8.60;3.92;;;17.00;99.90;;;;;;5052853;28;20266;-51
2023/07/31 01:59:49;;;;;;;7.30;3.60;;;17.10;99.90;;;;;;5053091;28;20642;-52
2023/07/31 02:02:15;;;;;;;6.80;3.25;;;17.00;99.90;;;;;;5053261;28;20174;-47
2023/07/31 02:04:41;;;;;;;7.25;3.38;;;17.10;99.90;;;;;;5053172;28;20568;-48
2023/07/31 02:07:06;;;;;;;7.25;3.72;;;17.00;99.90;;;;;;5053357;28;20296;-48
2023/07/31 02:09:32;;;;;;;5.13;2.97;;;17.10;99.90;;;;;;5053223;28;20182;-47
2023/07/31 02:11:57;;;;;;;7.75;3.85;;;17.20;99.90;;;;;;5053332;28;20218;-47
2023/07/31 02:14:24;;;;;;;6.10;3.58;;;17.10;99.90;;;;;;5053141;28;20208;-48
2023/07/31 02:16:49;;;;;;;7.68;3.58;;;17.20;99.90;;;;;;5052992;28;20170;-47
2023/07/31 02:19:15;;;;;;;7.03;2.90;;;17.20;99.90;;;;;;5052963;28;20214;-49
2023/07/31 02:21:40;;;;;;;6.45;3.15;;;17.20;99.90;;;;;;5052939;28;20171;-47
2023/07/31 02:24:06;;;;;;;5.78;2.75;;;17.30;99.90;;;;;;5052873;28;20175;-47
2023/07/31 02:26:31;;;;;;;7.30;3.17;;;17.10;99.90;;;;;;5052883;28;20571;-47
2023/07/31 02:28:57;;;;;;;11.73;3.60;;;17.20;99.90;;;;;;5053149;28;20167;-47
2023/07/31 02:31:22;;;;;;;7.22;3.70;;;17.10;99.90;;;;;;5052783;28;20175;-46
2023/07/31 02:33:48;;;;;;;11.13;3.65;;;17.20;99.90;;;;;;5052917;28;20174;-48
2023/07/31 02:36:14;;;;;;;9.18;3.63;;;17.20;99.90;;;;;;5052748;28;20204;-47
2023/07/31 02:38:40;;;;;;;6.65;3.47;;;17.30;99.90;;;;;;5052345;28;20302;-48
2023/07/31 02:41:05;;;;;;;8.65;4.10;;;17.30;99.90;;;;;;5052520;28;20238;-48
2023/07/31 02:43:31;;;;;;;9.23;3.50;;;17.40;99.90;;;;;;5053086;28;20622;-47
2023/07/31 02:45:56;;;;;;;17.67;4.45;;;17.30;99.90;;;;;;5052737;28;20645;-47
2023/07/31 02:48:22;;;;;;;7.30;3.95;;;17.30;99.90;;;;;;5052428;28;20166;-47
2023/07/31 02:50:48;;;;;;;12.50;3.78;;;17.20;99.90;;;;;;5052398;28;20209;-48
2023/07/31 02:53:13;;;;;;;11.15;3.97;;;17.30;99.90;;;;;;5052309;28;20163;-47
2023/07/31 02:55:39;;;;;;;10.07;3.67;;;17.20;99.90;;;;;;5052365;28;20166;-47
2023/07/31 02:58:05;;;;;;;10.88;4.30;;;17.20;99.90;;;;;;5051768;28;20203;-48
2023/07/31 03:00:30;;;;;;;13.65;4.25;;;17.30;99.90;;;;;;5052669;28;20170;-47
2023/07/31 03:02:56;;;;;;;9.02;3.90;;;18.90;99.90;;;;;;5052434;28;20596;-48
2023/07/31 03:05:21;;;;;;;6.35;3.50;;;17.30;99.90;;;;;;5052107;28;20171;-47
2023/07/31 03:07:47;;;;;;;7.80;3.88;;;17.40;99.90;;;;;;5052024;28;20216;-48
2023/07/31 03:10:12;;;;;;;7.35;3.85;;;17.40;99.90;;;;;;5052003;28;20170;-46
2023/07/31 03:12:38;;;;;;;8.57;3.72;;;17.30;99.90;;;;;;5051910;28;20222;-46
2023/07/31 03:15:04;;;;;;;17.13;4.40;;;17.20;99.90;;;;;;5051918;28;20248;-47
2023/07/31 03:17:29;;;;;;;8.60;3.90;;;17.30;99.90;;;;;;5052329;28;20634;-47
2023/07/31 03:19:55;;;;;;;10.40;4.18;;;17.30;99.90;;;;;;5052069;28;20635;-47
2023/07/31 03:22:20;;;;;;;11.93;4.07;;;17.30;99.90;;;;;;5051981;28;20213;-47
2023/07/31 03:24:46;;;;;;;8.50;4.50;;;17.20;99.90;;;;;;5051745;28;20570;-47
2023/07/31 03:27:11;;;;;;;9.25;3.70;;;17.40;99.90;;;;;;5051474;28;20688;-52
2023/07/31 03:29:37;;;;;;;7.97;3.85;;;17.40;99.90;;;;;;5051404;28;20253;-50
2023/07/31 03:32:03;;;;;;;9.75;4.07;;;17.30;99.90;;;;;;5051618;28;20216;-52
2023/07/31 03:34:29;;;;;;;12.68;4.55;;;17.30;99.90;;;;;;5052004;28;20177;-52
2023/07/31 03:36:55;;;;;;;8.80;3.63;;;17.30;99.90;;;;;;5051428;28;20237;-52
2023/07/31 03:39:20;;;;;;;9.68;4.15;;;17.30;99.90;;;;;;5051208;28;20198;-51
2023/07/31 03:41:46;;;;;;;10.55;4.35;;;17.30;99.90;;;;;;5051324;28;20224;-52
2023/07/31 03:44:11;;;;;;;10.23;4.43;;;17.30;99.90;;;;;;5051718;28;20178;-51
2023/07/31 03:46:37;;;;;;;10.65;4.10;;;17.30;99.90;;;;;;5051382;28;20173;-50
2023/07/31 03:49:03;;;;;;;8.38;3.88;;;17.20;99.90;;;;;;5051271;28;20167;-51
2023/07/31 03:51:28;;;;;;;7.57;3.90;;;17.20;99.90;;;;;;5051400;28;20178;-52
2023/07/31 03:53:54;;;;;;;9.32;4.25;;;17.20;99.90;;;;;;5051229;28;20232;-51
2023/07/31 03:56:19;;;;;;;9.02;3.92;;;17.20;99.90;;;;;;5050748;28;20177;-52
2023/07/31 03:58:45;;;;;;;10.65;4.38;;;17.20;99.90;;;;;;5051046;28;20206;-49
2023/07/31 04:01:10;;;;;;;8.18;4.28;;;17.20;99.90;;;;;;5051196;28;20190;-51
2023/07/31 04:03:36;;;;;;;8.25;4.25;;;17.30;99.90;;;;;;5051018;28;20193;-52
2023/07/31 04:06:01;;;;;;;11.27;4.70;;;17.40;99.90;;;;;;5051035;28;20171;-51
2023/07/31 04:08:27;;;;;;;8.07;3.83;;;17.20;99.90;;;;;;5051807;28;20170;-51
2023/07/31 04:10:52;;;;;;;11.45;4.80;;;17.30;99.90;;;;;;5050581;28;20271;-50
2023/07/31 04:13:18;;;;;;;8.60;3.83;;;17.20;99.90;;;;;;5050872;28;20222;-51
2023/07/31 04:15:51;;;;;;;12.30;4.85;;;17.20;99.90;;;;;;5051096;28;20198;-52
2023/07/31 04:18:17;;;;;;;7.60;4.22;;;17.20;99.90;;;;;;5050804;28;20700;-51
2023/07/31 04:20:42;;;;;;;7.53;4.32;;;17.40;99.90;;;;;;5050838;28;20170;-51
2023/07/31 04:23:08;;;;;;;8.82;4.00;;;17.30;99.90;;;;;;5050884;28;20197;-50
2023/07/31 04:25:34;;;;;;;11.27;4.70;;;17.30;99.90;;;;;;5050810;28;20174;-51
2023/07/31 04:28:00;;;;;;;11.30;4.88;;;17.30;99.90;;;;;;5050937;28;20179;-51
2023/07/31 04:30:26;;;;;;;7.40;4.85;;;17.40;99.90;;;;;;5051227;28;20167;-51
2023/07/31 04:32:51;;;;;;;9.27;4.53;;;17.40;99.90;;;;;;5050731;28;20166;-50
2023/07/31 04:35:17;;;;;;;8.02;4.35;;;17.40;99.90;;;;;;5050469;28;20209;-51
2023/07/31 04:37:42;;;;;;;8.93;4.28;;;17.40;99.90;;;;;;5050608;28;20245;-52
2023/07/31 04:40:08;;;;;;;11.20;4.57;;;17.50;99.90;;;;;;5050488;28;20174;-51
2023/07/31 04:42:34;;;;;;;7.20;4.43;;;17.30;99.90;;;;;;5050656;28;20163;-52
2023/07/31 04:45:00;;;;;;;9.52;4.63;;;17.50;99.90;;;;;;5050846;28;20206;-51
2023/07/31 04:47:25;;;;;;;7.43;4.18;;;17.50;99.90;;;;;;5050885;28;20167;-50
2023/07/31 04:49:51;;;;;;;9.40;4.60;;;17.40;99.90;;;;;;5050616;28;20254;-50
2023/07/31 04:52:16;;;;;;;7.97;4.18;;;17.40;99.90;;;;;;5050464;28;20170;-49
2023/07/31 04:54:42;;;;;;;10.95;4.35;;;17.50;99.90;;;;;;5050409;28;20228;-51
2023/07/31 04:57:07;;;;;;;9.68;4.60;;;17.50;99.90;;;;;;5050415;28;20178;-48
2023/07/31 04:59:33;;;;;;;7.18;4.65;;;17.60;99.90;;;;;;5050428;28;20206;-51
2023/07/31 05:01:58;;;;;;;8.68;4.28;;;17.50;99.90;;;;;;5051427;28;20658;-47
2023/07/31 05:04:24;;;;;;;10.05;4.10;;;17.60;99.90;;;;;;5054293;28;20511;-50
2023/07/31 05:06:50;;;;;;;9.63;3.72;;;17.60;99.90;;;;;;5054053;28;20580;-51
2023/07/31 05:09:15;;;;;;;7.32;3.63;;;17.60;99.90;;;;;;5053788;28;20677;-51
2023/07/31 05:11:42;;;;;;;6.03;3.65;;;17.70;99.90;;;;;;5052578;28;20218;-51
2023/07/31 05:14:08;;;;;;;10.10;3.75;;;17.70;99.90;;;;;;5054078;28;20250;-48
2023/07/31 05:16:34;;;;;;;9.95;4.30;;;19.30;99.90;;;;;;5053993;28;20174;-49
2023/07/31 05:18:59;;;;;;;6.75;3.80;;;17.80;99.90;;;;;;5054364;28;20210;-50
2023/07/31 05:21:25;;;;;;;9.15;4.05;;;16.40;99.90;;;;;;5054346;28;20216;-48
2023/07/31 05:23:51;;;;;;;6.15;3.30;;;17.90;99.90;;;;;;5054244;28;20533;-49
2023/07/31 05:26:17;;;;;;;7.00;4.20;;;17.80;99.90;;;;;;5053659;28;20220;-49
2023/07/31 05:28:43;;;;;;;3.85;3.33;;;17.80;99.90;;;;;;5053775;28;20166;-48
2023/07/31 05:31:08;;;;;;;9.23;4.32;;;17.90;99.90;;;;;;5053863;28;20167;-49
2023/07/31 05:33:34;;;;;;;8.27;3.58;;;17.80;99.90;;;;;;5053727;28;20166;-50
2023/07/31 05:35:59;;;;;;;6.35;3.45;;;17.80;99.90;;;;;;5054497;28;20258;-48
2023/07/31 05:38:25;;;;;;;5.85;3.65;;;17.70;99.90;;;;;;5053874;28;20203;-50
2023/07/31 05:40:51;;;;;;;9.95;3.90;;;17.70;99.90;;;;;;5053757;28;20176;-51
2023/07/31 05:43:16;;;;;;;6.13;3.78;;;17.70;99.90;;;;;;5053662;28;20552;-49
2023/07/31 05:45:42;;;;;;;11.20;3.55;;;17.70;99.90;;;;;;5053583;28;20635;-48
2023/07/31 05:48:08;;;;;;;9.27;4.18;;;17.80;99.90;;;;;;5053520;28;20163;-49
2023/07/31 05:50:34;;;;;;;6.55;2.97;;;17.70;99.90;;;;;;5053784;28;20224;-48
2023/07/31 05:52:59;;;;;;;6.20;3.33;;;17.70;99.90;;;;;;5053841;28;20681;-47
2023/07/31 05:55:26;;;;;;;6.07;3.60;;;17.70;99.90;;;;;;5053444;28;20198;-49
2023/07/31 05:57:52;;;;;;;6.63;3.10;;;17.70;99.90;;;;;;5052896;28;20198;-51
2023/07/31 06:00:18;;;;;;;9.32;3.60;;;17.60;99.90;;;;;;5053467;28;20182;-48
2023/07/31 06:02:43;;;;;;;8.10;3.75;;;17.70;99.90;;;;;;5053299;28;20166;-47
2023/07/31 06:05:10;;;;;;;5.30;3.58;;;17.60;99.90;;;;;;5053212;28;20219;-48
2023/07/31 06:07:35;;;;;;;10.93;3.70;;;17.70;99.90;;;;;;5053151;28;20656;-47
2023/07/31 06:10:04;;;;;;;12.00;3.70;;;17.50;99.90;;;;;;5053414;28;20179;-47
2023/07/31 06:12:31;;;;;;;5.38;3.00;;;17.60;99.90;;;;;;5053439;28;20214;-47
2023/07/31 06:14:56;;;;;;;6.18;3.30;;;17.50;99.90;;;;;;5053275;28;20655;-48
2023/07/31 06:17:22;;;;;;;6.78;3.58;;;17.50;99.90;;;;;;5053113;28;20246;-48
2023/07/31 06:19:48;;;;;;;9.05;4.00;;;17.60;99.90;;;;;;5053012;28;20179;-47
2023/07/31 06:22:13;;;;;;;6.88;3.97;;;17.50;99.90;;;;;;5052918;28;20649;-49
2023/07/31 06:24:39;;;;;;;8.70;3.70;;;17.60;99.90;;;;;;5052886;28;20622;-47
2023/07/31 06:27:05;;;;;;;5.10;3.05;;;17.70;99.90;;;;;;5051399;28;20630;-48
2023/07/31 06:29:31;;;;;;;9.70;3.05;;;17.60;99.90;;;;;;5052628;28;20191;-47
2023/07/31 06:31:57;;;;;;;7.40;3.30;;;17.70;99.90;;;;;;5053155;28;20337;-48
2023/07/31 06:34:22;;;;;;;6.40;3.47;;;17.70;99.90;;;;;;5052759;28;20194;-48
2023/07/31 06:36:48;;;;;;;6.05;3.00;;;16.50;99.90;;;;;;5051451;28;20641;-50
2023/07/31 06:39:13;;;;;;;6.90;3.38;;;17.70;99.90;;;;;;5052860;28;20673;-48
2023/07/31 06:41:39;;;;;;;4.57;3.35;;;17.80;99.90;;;;;;5052540;28;20170;-52
2023/07/31 06:44:05;;;;;;;5.70;3.28;;;18.00;99.90;;;;;;5052568;28;20166;-48
2023/07/31 06:46:30;;;;;;;6.47;3.00;;;18.00;99.90;;;;;;5052333;28;20170;-48
2023/07/31 06:48:56;;;;;;;6.55;3.25;;;18.10;99.90;;;;;;5052807;28;20244;-48
2023/07/31 06:51:21;;;;;;;7.18;3.58;;;18.10;99.90;;;;;;5052338;28;20576;-50
2023/07/31 06:53:47;;;;;;;6.53;3.38;;;18.10;99.90;;;;;;5052310;28;20167;-51
2023/07/31 06:56:12;;;;;;;8.18;3.15;;;18.20;99.90;;;;;;5052150;28;20174;-49
2023/07/31 06:58:38;;;;;;;5.00;3.33;;;18.20;99.90;;;;;;5052341;28;20210;-50
2023/07/31 07:01:04;;;;;;;10.00;4.15;;;18.10;99.90;;;;;;5052487;28;20189;-52
2023/07/31 07:03:29;;;;;;;8.38;4.32;;;18.10;99.90;;;;;;5052744;28;20224;-51
2023/07/31 07:05:55;;;;;;;7.05;3.45;;;18.20;99.90;;;;;;5052495;28;20186;-52
2023/07/31 07:08:20;;;;;;;6.07;3.47;;;18.10;99.90;;;;;;5052069;28;20170;-52
2023/07/31 07:10:47;;;;;;;6.13;3.30;;;18.10;99.90;;;;;;5051952;28;20178;-52
2023/07/31 07:13:13;;;;;;;5.30;2.92;;;18.20;99.90;;;;;;5050581;28;20268;-52
2023/07/31 07:15:38;;;;;;;8.55;4.13;;;18.20;99.90;;;;;;5052106;28;20178;-52
2023/07/31 07:18:05;;;;;;;8.82;3.60;;;18.10;99.90;;;;;;5052118;28;20314;-52
2023/07/31 07:20:31;;;;;;;6.05;3.28;;;18.30;99.90;;;;;;5051859;28;20590;-51
2023/07/31 07:22:56;;;;;;;6.07;3.58;;;17.90;99.90;;;;;;5052204;28;20162;-51
2023/07/31 07:25:22;;;;;;;6.63;3.42;;;18.00;99.90;;;;;;5050911;28;20171;-52
2023/07/31 07:27:47;;;;;;;10.35;3.90;;;18.10;99.90;;;;;;5051654;28;20174;-52
2023/07/31 07:30:14;;;;;;;8.18;3.30;;;18.00;99.90;;;;;;5050853;28;20178;-51
2023/07/31 07:32:40;;;;;;;7.93;3.90;;;18.00;99.90;;;;;;5051312;28;20598;-52
2023/07/31 07:35:06;;;;;;;7.13;3.17;;;17.90;99.90;;;;;;5051290;28;20249;-52
2023/07/31 07:37:32;;;;;;;8.05;3.28;;;17.80;99.90;;;;;;5051165;28;20623;-51
2023/07/31 07:39:57;;;;;;;7.32;3.28;;;17.70;99.90;;;;;;5051944;28;20174;-52
2023/07/31 07:42:23;;;;;;;6.97;3.58;;;17.80;99.90;;;;;;5051099;28;20167;-51
2023/07/31 07:44:48;;;;;;;5.25;3.17;;;17.80;99.90;;;;;;5051046;28;20174;-51
2023/07/31 07:47:14;;;;;;;7.88;3.05;;;17.70;99.90;;;;;;5050994;28;20167;-52
2023/07/31 07:49:39;;;;;;;4.05;2.83;;;17.80;99.90;;;;;;5051119;28;20725;-52
2023/07/31 07:52:05;;;;;;;6.55;2.92;;;17.60;99.90;;;;;;5050879;28;20163;-52
2023/07/31 07:54:32;;;;;;;6.85;3.55;;;17.70;99.90;;;;;;5051031;28;20251;-51
2023/07/31 07:56:57;;;;;;;5.57;3.17;;;17.70;99.90;;;;;;5050965;28;20170;-52
2023/07/31 07:59:23;;;;;;;5.82;2.67;;;17.70;99.90;;;;;;5050289;28;20697;-52
2023/07/31 08:01:49;;;;;;;7.22;3.35;;;17.70;99.90;;;;;;5050920;28;20166;-52
2023/07/31 08:04:14;;;;;;;6.30;3.00;;;17.90;99.90;;;;;;5050852;28;20224;-52
2023/07/31 08:06:40;;;;;;;5.72;2.42;;;17.70;99.90;;;;;;5050863;28;20235;-48
2023/07/31 08:09:06;;;;;;;9.40;3.22;;;17.80;99.90;;;;;;5051020;28;20221;-49
2023/07/31 08:11:34;;;;;;;4.78;2.80;;;17.80;99.90;;;;;;5050606;28;20210;-49
2023/07/31 08:14:00;;;;;;;5.72;2.72;;;17.80;99.90;;;;;;5050542;28;20642;-48
2023/07/31 08:16:26;;;;;;;4.07;2.58;;;17.80;99.90;;;;;;5051136;28;20202;-52
2023/07/31 08:18:51;;;;;;;6.13;3.25;;;17.90;99.90;;;;;;5050676;28;20205;-51
2023/07/31 08:21:17;;;;;;;5.00;3.10;;;18.00;99.90;;;;;;5050659;28;20167;-52
2023/07/31 08:23:42;;;;;;;4.47;2.80;;;17.90;99.90;;;;;;5050600;28;20178;-52
2023/07/31 08:26:08;;;;;;;6.05;2.72;;;18.00;99.90;;;;;;5050403;28;20170;-52
2023/07/31 08:28:34;;;;;;;4.22;3.00;;;18.00;99.90;;;;;;5050327;28;20231;-52
2023/07/31 08:31:00;;;;;;;6.45;3.20;;;18.00;99.90;;;;;;5050764;28;20178;-51
2023/07/31 08:33:26;;;;;;;5.15;3.17;;;18.10;99.90;;;;;;5050974;28;20321;-51
2023/07/31 08:35:51;;;;;;;6.28;3.20;;;18.20;99.90;;;;;;5050805;28;20686;-52
2023/07/31 08:38:17;;;;;;;6.45;3.28;;;18.10;99.90;;;;;;5054490;28;20209;-52
2023/07/31 08:40:42;;;;;;;6.90;3.30;;;18.10;99.90;;;;;;5054671;28;20174;-48
2023/07/31 08:43:09;;;;;;;4.90;2.60;;;18.30;99.90;;;;;;5054392;28;20173;-52
2023/07/31 08:45:34;;;;;;;6.00;3.45;;;18.20;99.90;;;;;;5054567;28;20173;-52
2023/07/31 08:48:00;;;;;;;4.63;2.78;;;18.20;99.90;;;;;;5054462;28;20163;-51
2023/07/31 08:50:26;;;;;;;5.55;3.22;;;18.20;99.90;;;;;;5054836;28;20574;-52
2023/07/31 08:52:52;;;;;;;5.63;3.00;;;18.20;99.90;;;;;;5054983;28;20173;-50
2023/07/31 08:55:23;;;;;;;5.70;3.15;;;18.20;99.90;;;;;;5054484;28;20533;-52
2023/07/31 08:57:51;;;;;;;5.35;3.55;;;18.20;99.90;;;;;;5054378;28;20233;-52
2023/07/31 09:00:17;;;;;;;5.28;2.83;;;18.30;99.90;;;;;;5055190;28;20229;-52
2023/07/31 09:03:07;;;;;;;3.85;2.60;;;18.30;99.90;;;;;;5054822;28;20638;-52
2023/07/31 09:05:33;;;;;;;5.30;2.92;;;18.20;99.90;;;;;;5054367;28;20236;-52
2023/07/31 09:08:00;;;;;;;6.00;3.15;;;18.30;99.90;;;;;;5054721;28;20171;-52
2023/07/31 09:10:26;;;;;;;4.97;3.00;;;18.40;99.90;;;;;;5054919;28;20171;-52
2023/07/31 09:12:52;;;;;;;5.60;2.95;;;18.20;99.90;;;;;;5054273;28;20221;-52
2023/07/31 09:15:18;;;;;;;5.88;3.78;;;18.30;99.90;;;;;;5054682;28;20170;-52
2023/07/31 09:17:44;;;;;;;5.15;3.08;;;18.20;99.90;;;;;;5053883;28;20231;-52
2023/07/31 09:20:19;;;;;;;4.38;2.83;;;18.50;99.90;;;;;;5053759;28;20249;-52
2023/07/31 09:22:45;;;;;;;6.95;2.90;;;18.60;99.90;;;;;;5053745;28;20174;-52
2023/07/31 09:25:21;;;;;;;8.32;3.10;;;18.60;99.90;;;;;;5054106;28;20221;-52
2023/07/31 09:27:51;;;;;;;5.13;2.75;;;18.60;99.90;;;;;;5053969;28;20175;-52
2023/07/31 09:30:18;;;;;;;6.35;3.03;;;18.70;99.90;;;;;;5054222;28;20666;-52
2023/07/31 09:32:44;;;;;;;7.18;2.80;;;18.80;99.90;;;;;;5054159;28;20174;-53
2023/07/31 09:35:27;;;;;;;4.45;2.90;;;18.80;99.90;;;;;;5054158;28;20177;-52
2023/07/31 09:37:55;;;;;;;6.40;2.95;;;18.90;99.90;;;;;;5053706;28;20674;-51
2023/07/31 09:40:31;;;;;;;6.10;2.85;;;18.90;99.90;;;;;;5053982;28;20166;-52
2023/07/31 09:43:05;;;;;;;5.60;2.90;;;18.90;99.90;;;;;;5054402;28;20630;-52
2023/07/31 09:45:36;;;;;;;7.32;2.90;;;19.00;99.90;;;;;;5053895;28;20626;-52
2023/07/31 09:48:02;;;;;;;6.35;2.78;;;19.00;99.90;;;;;;5052905;28;20630;-52
2023/07/31 09:50:29;;;;;;;4.95;2.90;;;19.20;99.90;;;;;;5054089;28;20174;-51
2023/07/31 09:52:54;;;;;;;7.03;3.25;;;19.20;99.90;;;;;;5054198;28;20256;-52
2023/07/31 09:55:20;;;;;;;5.45;2.75;;;19.30;99.90;;;;;;5053517;28;20206;-51
2023/07/31 09:57:48;;;;;;;6.85;3.00;;;19.20;99.90;;;;;;5053697;28;20244;-50
2023/07/31 10:00:18;;;;;;;4.05;2.60;;;19.20;99.90;;;;;;5053853;28;20209;-48
2023/07/31 10:02:46;;;;;;;8.73;3.47;;;19.20;99.90;;;;;;5053632;28;20173;-51
2023/07/31 10:05:15;;;;;;;4.00;2.42;;;19.30;99.90;;;;;;5053569;28;20634;-51
2023/07/31 10:07:43;;;;;;;8.15;3.25;;;19.40;99.90;;;;;;5053407;28;20170;-50
2023/07/31 10:10:09;;;;;;;7.70;3.65;;;19.50;99.90;;;;;;5053468;28;20175;-50
2023/07/31 10:12:36;;;;;;;6.47;3.17;;;19.50;99.90;;;;;;5053300;28;20227;-52
2023/07/31 10:15:02;;;;;;;4.20;2.83;;;19.40;99.90;;;;;;5053235;28;20175;-48
2023/07/31 10:17:29;;;;;;;5.50;2.90;;;19.60;99.90;;;;;;5053563;28;20165;-49
2023/07/31 10:19:58;;;;;;;4.70;3.00;;;19.50;99.90;;;;;;5053278;28;20240;-48
2023/07/31 10:22:24;;;;;;;7.00;3.60;;;19.20;99.90;;;;;;5053478;28;20178;-51
2023/07/31 10:24:52;;;;;;;3.88;2.83;;;19.30;99.90;;;;;;5052700;28;20206;-51
2023/07/31 10:27:17;;;;;;;6.97;3.10;;;19.30;99.90;;;;;;5052542;28;20569;-51
2023/07/31 10:29:46;;;;;;;6.50;3.00;;;19.40;99.90;;;;;;5053141;28;20171;-50
2023/07/31 10:32:13;;;;;;;5.47;2.88;;;19.50;99.90;;;;;;5053172;28;20175;-51
2023/07/31 10:34:40;;;;;;;5.97;2.50;;;19.50;99.90;;;;;;5052804;28;20492;-50
2023/07/31 10:37:26;;;;;;;4.35;2.58;;;19.50;99.90;;;;;;5053191;28;20265;-51
2023/07/31 10:40:03;;;;;;;5.00;2.45;;;19.30;99.90;;;;;;5052777;28;20212;-51
2023/07/31 10:42:37;;;;;;;4.07;2.42;;;19.10;99.90;;;;;;5053239;28;20591;-53
2023/07/31 10:45:10;;;;;;;4.78;2.40;;;19.10;99.90;;;;;;5052659;28;20200;-52
2023/07/31 10:47:46;;;;;;;4.78;2.25;;;19.30;99.90;;;;;;5052563;28;20266;-51
2023/07/31 10:50:20;;;;;;;1.48;1.38;;;19.50;99.90;;;;;;5051851;28;20230;-51
2023/07/31 10:52:53;;;;;;;3.38;1.92;;;19.40;99.90;;;;;;5052329;28;20258;-52
2023/07/31 10:55:26;;;;;;;2.92;1.95;;;19.40;99.90;;;;;;5050367;28;20643;-51
2023/07/31 10:57:52;;;;;;;2.60;1.77;;;19.40;99.90;;;;;;5051595;28;20281;-51
2023/07/31 11:00:22;;;;;;;3.88;2.10;;;19.50;99.90;;;;;;5052487;28;20250;-51
2023/07/31 11:03:17;;;;;;;2.33;1.58;;;19.80;99.90;;;;;;5052997;28;20246;-49
2023/07/31 11:05:59;;;;;;;2.25;1.50;;;20.00;99.90;;;;;;5050976;28;20277;-51
2023/07/31 11:08:28;;;;;;;2.13;1.58;;;20.30;99.90;;;;;;5051521;28;20189;-49
2023/07/31 11:11:03;;;;;;;3.22;1.70;;;20.50;99.90;;;;;;5051293;28;20591;-51
2023/07/31 11:13:30;;;;;;;2.28;1.40;;;20.50;99.90;;;;;;5052934;28;20187;-51
2023/07/31 11:15:56;;;;;;;2.08;1.42;;;20.30;99.90;;;;;;5051477;28;20162;-51
2023/07/31 11:18:22;;;;;;;2.80;1.45;;;20.40;99.90;;;;;;5052054;28;20204;-52
2023/07/31 11:20:47;;;;;;;2.88;1.70;;;20.30;99.90;;;;;;5052309;28;20163;-52
2023/07/31 11:23:16;;;;;;;4.93;1.75;;;20.20;99.90;;;;;;5052201;28;20167;-52
2023/07/31 11:25:42;;;;;;;2.65;1.33;;;20.50;99.90;;;;;;5050683;28;20166;-51
2023/07/31 11:28:15;;;;;;;3.35;1.40;;;20.40;99.90;;;;;;5052235;28;20174;-52
2023/07/31 11:30:41;;;;;;;1.33;1.13;;;20.40;99.90;;;;;;5052154;28;20166;-52
2023/07/31 11:33:08;;;;;;;1.50;1.08;;;20.50;99.90;;;;;;5051650;28;20162;-51
2023/07/31 11:35:46;;;;;;;1.15;1.05;;;20.80;99.90;;;;;;5050238;28;20182;-50
2023/07/31 11:38:26;;;;;;;1.77;1.40;;;20.40;99.90;;;;;;5052182;28;20194;-50
2023/07/31 11:40:53;;;;;;;1.17;1.08;;;20.30;99.90;;;;;;5052016;28;20704;-52
2023/07/31 11:43:19;;;;;;;1.52;1.42;;;20.40;99.90;;;;;;5052149;28;20249;-50
2023/07/31 11:45:51;;;;;;;2.40;1.50;;;20.60;99.90;;;;;;5050591;28;20166;-52
2023/07/31 11:48:30;;;;;;;1.73;1.50;;;20.70;99.90;;;;;;5051870;28;20646;-51
2023/07/31 11:51:00;;;;;;;3.25;1.27;;;20.50;99.90;;;;;;5052414;28;20312;-51
2023/07/31 11:53:31;;;;;;;1.42;1.33;;;20.40;99.90;;;;;;5051084;28;20691;-52
2023/07/31 11:55:58;;;;;;;2.35;1.58;;;20.30;99.90;;;;;;5051943;28;20166;-51
2023/07/31 11:58:25;;;;;;;2.67;1.42;;;20.40;99.90;;;;;;5052106;28;20218;-52
2023/07/31 12:00:51;;;;;;;1.70;1.60;;;20.20;99.90;;;;;;5051715;28;20159;-50
2023/07/31 12:03:18;;;;;;;2.25;1.90;;;20.10;99.90;;;;;;5051706;28;20220;-51
2023/07/31 12:05:44;;;;;;;2.22;1.80;;;19.90;99.90;;;;;;5051593;28;20163;-49
2023/07/31 12:08:15;;;;;;;2.03;1.70;;;20.00;99.90;;;;;;5051658;28;20184;-51
2023/07/31 12:10:40;;;;;;;3.47;1.90;;;20.10;99.90;;;;;;5051052;28;20170;-51
2023/07/31 12:13:24;;;;;;;3.67;2.05;;;20.10;99.90;;;;;;5051448;28;20218;-52
2023/07/31 12:15:56;;;;;;;6.43;2.20;;;19.80;99.90;;;;;;5051251;28;20181;-52
2023/07/31 12:18:22;;;;;;;2.60;1.92;;;19.90;99.90;;;;;;5051670;28;20202;-52
2023/07/31 12:20:59;;;;;;;1.90;1.70;;;20.00;99.90;;;;;;5051389;28;20167;-51
2023/07/31 12:23:30;;;;;;;3.20;2.53;;;20.10;99.90;;;;;;5051558;28;20202;-50
2023/07/31 12:26:17;;;;;;;3.28;2.42;;;20.00;99.90;;;;;;5051661;28;20204;-52
2023/07/31 12:28:50;;;;;;;2.72;2.20;;;20.30;99.90;;;;;;5051263;28;20174;-51
2023/07/31 12:31:20;;;;;;;3.70;2.05;;;20.30;99.90;;;;;;5051252;28;20254;-51
2023/07/31 12:33:49;;;;;;;4.72;1.85;;;20.40;99.90;;;;;;5050918;28;20163;-50
2023/07/31 12:36:17;;;;;;;4.50;2.40;;;20.40;99.90;;;;;;5031393;28;20160;-52
2023/07/31 12:38:44;;;;;;;4.00;2.55;;;20.50;99.90;;;;;;5030952;28;20749;-52
2023/07/31 12:41:10;;;;;;;2.55;2.03;;;20.70;99.90;;;;;;5031307;28;20304;-53
2023/07/31 12:43:37;;;;;;;3.50;2.28;;;20.80;99.90;;;;;;5031549;28;20175;-52
2023/07/31 12:46:03;;;;;;;2.90;2.10;;;20.70;99.90;;;;;;5031307;28;20242;-52